createdAt,value
2024-01-19T00:01:28.399Z,27.77
2024-01-19T00:03:58.002Z,25.60
2024-01-19T00:06:26.081Z,36.77
2024-01-19T00:08:54.208Z,24.90
2024-01-19T00:11:23.645Z,24.27
2024-01-19T00:13:51.668Z,29.03
2024-01-19T00:16:20.320Z,24.33
2024-01-19T00:18:48.916Z,24.97
2024-01-19T00:21:17.408Z,24.33
2024-01-19T00:23:45.676Z,27.27
2024-01-19T00:26:13.693Z,27.37
2024-01-19T00:28:43.112Z,28.10
2024-01-19T00:31:11.086Z,26.50
2024-01-19T00:33:39.019Z,25.83
2024-01-19T00:36:07.794Z,22.00
2024-01-19T00:38:35.847Z,18.27
2024-01-19T00:41:03.840Z,16.20
2024-01-19T00:43:31.797Z,23.70
2024-01-19T00:46:01.111Z,15.73
2024-01-19T00:48:29.200Z,16.80
2024-01-19T00:50:57.245Z,18.03
2024-01-19T00:53:25.212Z,17.43
2024-01-19T00:55:53.202Z,17.77
2024-01-19T00:58:21.187Z,18.23
2024-01-19T01:00:49.680Z,16.77
2024-01-19T01:03:25.489Z,17.47
2024-01-19T01:05:57.833Z,15.77
2024-01-19T01:08:27.070Z,16.00
2024-01-19T01:10:55.608Z,16.77
2024-01-19T01:13:23.655Z,16.03
2024-01-19T01:15:53.590Z,20.70
2024-01-19T01:18:22.527Z,17.47
2024-01-19T01:20:53.234Z,18.47
2024-01-19T01:23:21.869Z,18.10
2024-01-19T01:25:49.873Z,18.07
2024-01-19T01:28:17.864Z,20.33
2024-01-19T01:30:45.907Z,20.23
2024-01-19T01:33:14.115Z,20.50
2024-01-19T01:35:42.414Z,21.97
2024-01-19T01:38:11.795Z,23.70
2024-01-19T01:40:39.760Z,21.93
2024-01-19T01:43:08.429Z,21.50
2024-01-19T01:45:36.405Z,20.37
2024-01-19T01:48:05.305Z,21.53
2024-01-19T01:50:33.845Z,21.70
2024-01-19T01:53:02.850Z,20.10
2024-01-19T01:55:32.433Z,21.33
2024-01-19T01:58:00.635Z,21.33
2024-01-19T02:00:31.741Z,19.93
2024-01-19T02:03:02.469Z,20.47
2024-01-19T02:05:30.795Z,18.37
2024-01-19T02:07:58.993Z,20.70
2024-01-19T02:10:27.412Z,20.03
2024-01-19T02:12:57.740Z,19.30
2024-01-19T02:15:27.662Z,19.60
2024-01-19T02:17:56.037Z,21.27
2024-01-19T02:20:24.358Z,20.17
2024-01-19T02:22:55.024Z,19.63
2024-01-19T02:25:24.936Z,20.67
2024-01-19T02:27:53.473Z,20.97
2024-01-19T02:30:21.455Z,19.63
2024-01-19T02:32:49.607Z,20.07
2024-01-19T02:35:17.766Z,20.47
2024-01-19T02:37:45.762Z,21.70
2024-01-19T02:40:14.392Z,22.23
2024-01-19T02:42:43.687Z,21.97
2024-01-19T02:45:11.911Z,21.97
2024-01-19T02:47:39.898Z,22.03
2024-01-19T02:50:08.761Z,21.67
2024-01-19T02:52:36.713Z,21.33
2024-01-19T02:55:05.913Z,23.30
2024-01-19T02:57:33.891Z,24.60
2024-01-19T03:00:04.530Z,23.70
2024-01-19T03:02:32.577Z,22.03
2024-01-19T03:05:00.662Z,22.53
2024-01-19T03:07:28.660Z,24.63
2024-01-19T03:09:56.644Z,24.33
2024-01-19T03:12:24.766Z,23.87
2024-01-19T03:14:52.764Z,23.43
2024-01-19T03:17:22.299Z,25.33
2024-01-19T03:19:50.310Z,24.17
2024-01-19T03:22:18.329Z,23.57
2024-01-19T03:24:46.321Z,24.23
2024-01-19T03:27:15.679Z,23.63
2024-01-19T03:29:44.565Z,26.30
2024-01-19T03:32:12.542Z,27.07
2024-01-19T03:34:42.216Z,25.93
2024-01-19T03:37:10.190Z,27.80
2024-01-19T03:39:38.136Z,28.43
2024-01-19T03:42:06.177Z,27.63
2024-01-19T03:44:34.570Z,27.17
2024-01-19T03:47:02.748Z,30.60
2024-01-19T03:49:30.765Z,26.30
2024-01-19T03:52:01.281Z,26.87
2024-01-19T03:54:29.361Z,27.47
2024-01-19T03:56:59.635Z,27.17
2024-01-19T03:59:28.051Z,27.63
2024-01-19T04:01:56.435Z,29.10
2024-01-19T04:04:25.094Z,27.73
2024-01-19T04:06:53.880Z,27.20
2024-01-19T04:09:23.288Z,27.70
2024-01-19T04:11:51.301Z,26.03
2024-01-19T04:14:19.296Z,28.27
2024-01-19T04:16:47.279Z,27.50
2024-01-19T04:19:16.748Z,27.73
2024-01-19T04:21:44.708Z,26.97
2024-01-19T04:24:12.636Z,26.83
2024-01-19T04:26:41.997Z,27.70
2024-01-19T04:29:11.123Z,28.67
2024-01-19T04:31:39.354Z,28.23
2024-01-19T04:34:07.965Z,28.53
2024-01-19T04:36:35.989Z,26.60
2024-01-19T04:39:04.527Z,28.67
2024-01-19T04:41:34.171Z,27.43
2024-01-19T04:44:04.154Z,27.43
2024-01-19T04:46:32.403Z,26.97
2024-01-19T04:49:00.686Z,26.77
2024-01-19T04:51:28.834Z,27.93
2024-01-19T04:53:59.867Z,28.37
2024-01-19T04:56:28.377Z,27.97
2024-01-19T04:58:56.488Z,27.10
2024-01-19T05:01:25.929Z,28.07
2024-01-19T05:03:53.898Z,29.03
2024-01-19T05:06:22.121Z,28.23
2024-01-19T05:08:50.207Z,27.90
2024-01-19T05:11:18.257Z,29.57
2024-01-19T05:13:46.127Z,30.13
2024-01-19T05:16:15.092Z,30.23
2024-01-19T05:18:44.973Z,30.10
2024-01-19T05:21:12.893Z,27.47
2024-01-19T05:23:41.051Z,28.33
2024-01-19T05:26:10.104Z,30.00
2024-01-19T05:28:38.668Z,30.73
2024-01-19T05:31:06.668Z,29.93
2024-01-19T05:33:38.574Z,30.50
2024-01-19T05:36:09.635Z,29.60
2024-01-19T05:38:37.690Z,32.87
2024-01-19T05:41:06.099Z,32.60
2024-01-19T05:43:34.948Z,32.97
2024-01-19T05:46:02.959Z,33.00
2024-01-19T05:48:31.051Z,32.03
2024-01-19T05:50:59.182Z,32.87
2024-01-19T05:53:28.546Z,29.87
2024-01-19T05:55:56.660Z,35.27
2024-01-19T05:58:24.674Z,32.20
2024-01-19T06:00:52.797Z,30.73
2024-01-19T06:03:21.088Z,34.53
2024-01-19T06:05:49.324Z,32.43
2024-01-19T06:08:17.545Z,35.97
2024-01-19T06:10:46.954Z,34.20
2024-01-19T06:13:15.156Z,33.17
2024-01-19T06:15:43.218Z,35.00
2024-01-19T06:18:11.797Z,34.53
2024-01-19T06:20:42.943Z,33.70
2024-01-19T06:23:11.867Z,35.17
2024-01-19T06:25:41.068Z,38.23
2024-01-19T06:28:11.295Z,36.10
2024-01-19T06:30:39.634Z,38.33
2024-01-19T06:33:07.855Z,37.17
2024-01-19T06:35:36.814Z,53.27
2024-01-19T06:38:06.252Z,36.40
2024-01-19T06:40:35.253Z,51.03
2024-01-19T06:43:03.889Z,94.87
2024-01-19T06:45:33.271Z,54.27
2024-01-19T06:48:01.490Z,49.13
2024-01-19T06:50:29.552Z,44.67
2024-01-19T06:53:00.729Z,49.97
2024-01-19T06:55:29.291Z,40.80
2024-01-19T06:57:57.494Z,41.30
2024-01-19T07:00:25.775Z,41.87
2024-01-19T07:02:55.858Z,42.63
2024-01-19T07:05:24.552Z,40.33
2024-01-19T07:07:53.657Z,39.23
2024-01-19T07:10:22.542Z,37.50
2024-01-19T07:12:50.523Z,36.80
2024-01-19T07:15:18.481Z,37.27
2024-01-19T07:17:46.520Z,36.33
2024-01-19T07:20:16.108Z,35.53
2024-01-19T07:22:44.093Z,35.13
2024-01-19T07:25:12.103Z,35.83
2024-01-19T07:27:40.110Z,33.30
2024-01-19T07:30:09.046Z,32.40
2024-01-19T07:32:51.679Z,31.37
2024-01-19T07:35:27.701Z,30.67
2024-01-19T07:37:55.785Z,34.67
2024-01-19T07:40:24.155Z,33.27
2024-01-19T07:42:52.977Z,32.00
2024-01-19T07:45:20.986Z,29.60
2024-01-19T07:47:49.065Z,34.00
2024-01-19T07:50:17.252Z,40.07
2024-01-19T07:52:47.038Z,40.60
2024-01-19T07:55:15.171Z,39.97
2024-01-19T07:57:43.193Z,39.80
2024-01-19T08:00:11.997Z,38.43
2024-01-19T08:02:41.507Z,39.10
2024-01-19T08:05:10.088Z,38.57
2024-01-19T08:07:39.057Z,40.00
2024-01-19T08:10:09.584Z,40.43
2024-01-19T08:12:37.584Z,35.60
2024-01-19T08:15:06.699Z,34.13
2024-01-19T08:17:34.909Z,33.47
2024-01-19T08:20:02.925Z,34.00
2024-01-19T08:22:31.055Z,37.63
2024-01-19T08:24:59.776Z,35.57
2024-01-19T08:27:29.140Z,33.97
2024-01-19T08:29:57.170Z,28.20
2024-01-19T08:32:25.853Z,34.67
2024-01-19T08:34:54.046Z,24.43
2024-01-19T08:37:22.394Z,30.40
2024-01-19T08:39:50.349Z,32.47
2024-01-19T08:42:18.354Z,22.07
2024-01-19T08:44:47.772Z,24.60
2024-01-19T08:47:16.280Z,22.33
2024-01-19T08:49:44.398Z,34.43
2024-01-19T08:52:12.461Z,25.67
2024-01-19T08:54:40.743Z,25.03
2024-01-19T08:57:08.941Z,27.10
2024-01-19T08:59:36.981Z,24.80
2024-01-19T09:02:06.368Z,24.67
2024-01-19T09:04:35.784Z,22.92
2024-01-19T09:07:03.906Z,18.63
2024-01-19T09:09:32.064Z,22.30
2024-01-19T09:12:00.213Z,20.93
2024-01-19T09:14:28.720Z,28.10
2024-01-19T09:16:56.759Z,18.53
2024-01-19T09:19:26.190Z,19.03
2024-01-19T09:21:54.151Z,19.37
2024-01-19T09:24:22.278Z,15.23
2024-01-19T09:26:50.241Z,15.40
2024-01-19T09:29:18.170Z,27.63
2024-01-19T09:31:47.801Z,25.43
2024-01-19T09:34:16.652Z,22.00
2024-01-19T09:36:46.162Z,21.57
2024-01-19T09:39:14.132Z,36.90
2024-01-19T09:41:48.220Z,64.30
2024-01-19T09:44:19.616Z,36.17
2024-01-19T09:47:12.919Z,46.53
2024-01-19T09:49:47.934Z,26.23
2024-01-19T09:52:35.912Z,20.43
2024-01-19T09:55:03.981Z,23.03
2024-01-19T09:57:34.485Z,24.07
2024-01-19T10:00:02.822Z,44.03
2024-01-19T10:02:33.518Z,41.07
2024-01-19T10:05:01.662Z,72.63
2024-01-19T10:07:32.853Z,49.00
2024-01-19T10:10:00.868Z,39.37
2024-01-19T10:12:29.961Z,44.47
2024-01-19T10:14:57.965Z,38.97
2024-01-19T10:17:26.519Z,33.53
2024-01-19T10:19:54.759Z,32.03
2024-01-19T10:22:26.993Z,34.13
2024-01-19T10:25:03.789Z,44.53
2024-01-19T10:27:42.468Z,31.37
2024-01-19T10:30:12.780Z,31.27
2024-01-19T10:32:41.816Z,28.37
2024-01-19T10:35:11.513Z,33.47
2024-01-19T10:37:39.710Z,26.33
2024-01-19T10:40:20.005Z,33.27
2024-01-19T10:42:49.590Z,32.63
2024-01-19T10:45:19.883Z,31.13
2024-01-19T10:47:48.382Z,32.33
2024-01-19T10:50:17.432Z,28.97
2024-01-19T10:52:46.439Z,32.40
2024-01-19T10:55:23.392Z,31.43
2024-01-19T10:57:57.119Z,30.90
2024-01-19T11:00:27.232Z,28.17
2024-01-19T11:02:57.275Z,27.87
2024-01-19T11:05:26.456Z,27.20
2024-01-19T11:07:55.653Z,27.70
2024-01-19T11:10:26.521Z,28.13
2024-01-19T11:12:56.942Z,26.93
2024-01-19T11:15:30.570Z,28.80
2024-01-19T11:18:01.359Z,24.80
2024-01-19T11:20:32.735Z,28.40
2024-01-19T11:23:02.235Z,25.33
2024-01-19T11:25:46.163Z,29.47
2024-01-19T11:28:21.162Z,21.77
2024-01-19T11:31:12.121Z,34.30
2024-01-19T11:33:40.224Z,20.20
2024-01-19T11:36:09.039Z,25.23
2024-01-19T11:38:45.826Z,28.70
2024-01-19T11:41:46.191Z,20.80
2024-01-19T11:44:45.413Z,20.53
2024-01-19T11:47:45.095Z,17.27
2024-01-19T11:50:14.799Z,16.10
2024-01-19T11:52:47.054Z,16.80
2024-01-19T11:55:36.442Z,15.83
2024-01-19T11:58:44.084Z,30.37
2024-01-19T12:01:14.765Z,22.13
2024-01-19T12:03:43.682Z,18.20
2024-01-19T12:06:12.506Z,15.97
2024-01-19T12:08:42.307Z,15.73
2024-01-19T12:11:12.014Z,14.00
2024-01-19T12:13:48.500Z,12.83
2024-01-19T12:16:24.163Z,22.10
2024-01-19T12:18:56.925Z,25.87
2024-01-19T12:21:25.725Z,20.73
2024-01-19T12:24:00.072Z,28.17
2024-01-19T12:26:28.431Z,17.30
2024-01-19T12:28:57.849Z,18.13
2024-01-19T12:31:31.666Z,26.47
2024-01-19T12:34:12.524Z,17.00
2024-01-19T12:36:40.911Z,13.87
2024-01-19T12:39:12.673Z,16.13
2024-01-19T12:41:41.576Z,11.27
2024-01-19T12:44:09.640Z,12.13
2024-01-19T12:46:40.115Z,18.23
2024-01-19T12:49:08.199Z,20.57
2024-01-19T12:51:36.195Z,16.10
2024-01-19T12:54:04.227Z,9.97
2024-01-19T12:56:33.984Z,10.97
2024-01-19T12:59:09.076Z,11.50
2024-01-19T13:01:41.272Z,12.17
2024-01-19T13:04:09.427Z,11.83
2024-01-19T13:06:41.791Z,10.27
2024-01-19T13:09:10.499Z,11.07
2024-01-19T13:11:38.546Z,15.37
2024-01-19T13:14:07.260Z,18.43
2024-01-19T13:16:53.827Z,17.13
2024-01-19T13:19:23.848Z,11.93
2024-01-19T13:21:52.664Z,10.17
2024-01-19T13:24:20.739Z,13.20
2024-01-19T13:26:59.990Z,14.97
2024-01-19T13:29:28.123Z,17.47
2024-01-19T13:31:56.424Z,37.53
2024-01-19T13:34:29.005Z,45.80
2024-01-19T13:36:57.471Z,24.03
2024-01-19T13:39:25.463Z,15.30
2024-01-19T13:41:53.525Z,14.00
2024-01-19T13:44:21.587Z,10.50
2024-01-19T13:46:49.565Z,12.53
2024-01-19T13:49:17.654Z,11.80
2024-01-19T13:51:47.044Z,13.90
2024-01-19T13:54:15.025Z,13.23
2024-01-19T13:56:43.701Z,12.03
2024-01-19T13:59:11.703Z,11.33
2024-01-19T14:01:39.846Z,11.27
2024-01-19T14:04:07.858Z,11.40
2024-01-19T14:06:36.012Z,12.37
2024-01-19T14:09:06.085Z,16.23
2024-01-19T14:11:34.305Z,16.63
2024-01-19T14:14:03.252Z,16.53
2024-01-19T14:16:31.301Z,15.50
2024-01-19T14:18:59.321Z,13.33
2024-01-19T14:21:27.368Z,11.97
2024-01-19T14:23:55.260Z,11.87
2024-01-19T14:26:24.945Z,13.17
2024-01-19T14:28:53.246Z,15.87
2024-01-19T14:31:21.267Z,17.03
2024-01-19T14:33:49.379Z,23.07
2024-01-19T14:36:17.927Z,43.67
2024-01-19T14:38:45.819Z,17.53
2024-01-19T14:41:13.811Z,72.77
2024-01-19T14:43:45.502Z,42.97
2024-01-19T14:46:15.945Z,99.50
2024-01-19T14:48:44.391Z,29.70
2024-01-19T14:51:13.262Z,47.90
2024-01-19T14:53:43.243Z,53.83
2024-01-19T14:56:11.573Z,29.53
2024-01-19T14:58:39.537Z,15.07
2024-01-19T15:01:08.908Z,18.10
2024-01-19T15:03:36.878Z,41.33
2024-01-19T15:06:05.266Z,15.20
2024-01-19T15:08:33.305Z,19.83
2024-01-19T15:11:01.316Z,20.47
2024-01-19T15:13:29.375Z,13.53
2024-01-19T15:15:57.337Z,22.70
2024-01-19T15:18:28.315Z,35.90
2024-01-19T15:20:58.027Z,21.43
2024-01-19T15:23:25.947Z,17.30
2024-01-19T15:25:53.983Z,28.03
2024-01-19T15:28:21.953Z,57.17
2024-01-19T15:30:49.882Z,70.27
2024-01-19T15:33:18.341Z,15.77
2024-01-19T15:35:47.985Z,20.03
2024-01-19T15:38:16.005Z,14.83
2024-01-19T15:40:43.984Z,21.20
2024-01-19T15:43:11.954Z,16.90
2024-01-19T15:45:39.870Z,25.73
2024-01-19T15:48:08.499Z,21.70
2024-01-19T15:50:36.487Z,30.80
2024-01-19T15:53:09.096Z,29.30
2024-01-19T15:55:37.417Z,26.33
2024-01-19T15:58:05.568Z,25.43
2024-01-19T16:00:33.578Z,17.17
2024-01-19T16:03:01.617Z,18.93
2024-01-19T16:05:29.717Z,20.97
2024-01-19T16:07:57.736Z,21.50
2024-01-19T16:10:27.118Z,22.23
2024-01-19T16:12:55.044Z,32.83
2024-01-19T16:15:22.940Z,25.40
2024-01-19T16:17:51.128Z,46.00
2024-01-19T16:20:19.291Z,31.07
2024-01-19T16:22:47.244Z,26.83
2024-01-19T16:25:15.182Z,23.57
2024-01-19T16:27:44.606Z,20.77
2024-01-19T16:30:13.945Z,18.93
2024-01-19T16:32:45.877Z,17.53
2024-01-19T16:35:19.055Z,17.40
2024-01-19T16:37:52.254Z,15.40
2024-01-19T16:40:20.160Z,15.80
2024-01-19T16:42:49.420Z,14.83
2024-01-19T16:45:18.108Z,17.37
2024-01-19T16:47:46.465Z,14.93
2024-01-19T16:50:14.793Z,15.87
2024-01-19T16:52:42.746Z,20.47
2024-01-19T16:55:11.061Z,16.20
2024-01-19T16:57:38.943Z,14.33
2024-01-19T17:00:09.701Z,16.23
2024-01-19T17:02:37.654Z,15.83
2024-01-19T17:05:05.992Z,14.93
2024-01-19T17:07:36.500Z,16.77
2024-01-19T17:10:06.636Z,14.77
2024-01-19T17:12:34.529Z,14.13
2024-01-19T17:15:02.772Z,15.27
2024-01-19T17:17:32.105Z,17.73
2024-01-19T17:20:00.086Z,21.20
2024-01-19T17:22:29.964Z,18.30
2024-01-19T17:24:58.037Z,16.47
2024-01-19T17:27:26.086Z,18.07
2024-01-19T17:29:54.856Z,18.30
2024-01-19T17:32:22.917Z,22.00
2024-01-19T17:34:52.681Z,19.07
2024-01-19T17:37:20.846Z,18.20
2024-01-19T17:39:48.923Z,17.47
2024-01-19T17:42:17.186Z,19.60
2024-01-19T17:44:45.455Z,20.23
2024-01-19T17:47:13.437Z,21.00
2024-01-19T17:49:41.537Z,21.87
2024-01-19T17:52:11.854Z,20.03
2024-01-19T17:54:39.892Z,20.17
2024-01-19T17:57:07.936Z,28.27
2024-01-19T17:59:35.843Z,20.23
2024-01-19T18:02:03.796Z,23.23
2024-01-19T18:04:31.800Z,21.53
2024-01-19T18:06:59.853Z,18.43
2024-01-19T18:09:29.396Z,20.37
2024-01-19T18:11:57.549Z,20.87
2024-01-19T18:14:27.626Z,22.57
2024-01-19T18:16:55.663Z,19.43
2024-01-19T18:19:23.994Z,22.67
2024-01-19T18:21:54.093Z,25.77
2024-01-19T18:24:22.129Z,24.00
2024-01-19T18:26:52.967Z,24.17
2024-01-19T18:29:23.401Z,29.10
2024-01-19T18:31:51.461Z,27.97
2024-01-19T18:34:19.791Z,29.07
2024-01-19T18:36:47.865Z,26.63
2024-01-19T18:39:16.102Z,29.93
2024-01-19T18:41:44.006Z,28.20
2024-01-19T18:44:13.491Z,27.37
2024-01-19T18:46:46.384Z,25.27
2024-01-19T18:49:14.628Z,23.97
2024-01-19T18:51:42.739Z,25.37
2024-01-19T18:54:10.744Z,24.53
2024-01-19T18:56:39.727Z,25.10
2024-01-19T18:59:07.926Z,21.27
2024-01-19T19:01:38.100Z,22.57
2024-01-19T19:04:07.524Z,23.17
2024-01-19T19:06:36.751Z,25.77
2024-01-19T19:09:04.953Z,24.97
2024-01-19T19:11:33.696Z,23.90
2024-01-19T19:14:02.403Z,24.10
2024-01-19T19:16:37.134Z,26.10
2024-01-19T19:19:15.248Z,21.23
2024-01-19T19:21:43.294Z,20.83
2024-01-19T19:24:11.200Z,22.93
2024-01-19T19:26:39.353Z,20.10
2024-01-19T19:29:07.788Z,22.20
2024-01-19T19:31:35.887Z,18.53
2024-01-19T19:34:04.513Z,18.23
2024-01-19T19:36:34.319Z,19.53
2024-01-19T19:39:05.147Z,18.37
2024-01-19T19:41:33.461Z,18.27
2024-01-19T19:44:01.543Z,17.87
2024-01-19T19:46:29.490Z,18.43
2024-01-19T19:48:58.298Z,19.50
2024-01-19T19:51:28.226Z,20.73
2024-01-19T19:53:57.615Z,21.47
2024-01-19T19:56:25.588Z,23.37
2024-01-19T19:58:53.649Z,24.00
2024-01-19T20:01:22.584Z,23.53
2024-01-19T20:03:50.564Z,23.77
2024-01-19T20:06:24.058Z,22.90
2024-01-19T20:08:52.846Z,21.20
2024-01-19T20:11:23.123Z,22.40
2024-01-19T20:13:51.633Z,22.37
2024-01-19T20:16:19.804Z,21.43
2024-01-19T20:18:48.617Z,23.00
2024-01-19T20:21:16.785Z,23.50
2024-01-19T20:23:44.987Z,22.97
2024-01-19T20:26:16.474Z,22.67
2024-01-19T20:28:46.392Z,24.43
2024-01-19T20:31:15.258Z,21.60
2024-01-19T20:33:43.989Z,23.77
2024-01-19T20:36:12.538Z,23.43
2024-01-19T20:38:40.946Z,21.83
2024-01-19T20:41:11.525Z,24.13
2024-01-19T20:43:40.082Z,22.57
2024-01-19T20:46:10.069Z,23.60
2024-01-19T20:48:38.536Z,24.50
2024-01-19T20:51:08.239Z,19.60
2024-01-19T20:53:36.694Z,22.37
2024-01-19T20:56:05.482Z,21.77
2024-01-19T20:58:34.164Z,22.17
2024-01-19T21:01:02.911Z,24.00
2024-01-19T21:03:32.798Z,26.43
2024-01-19T21:06:00.966Z,31.90
2024-01-19T21:08:29.251Z,26.80
2024-01-19T21:10:59.904Z,23.30
2024-01-19T21:13:31.053Z,22.40
2024-01-19T21:15:59.845Z,22.70
2024-01-19T21:18:28.008Z,21.03
2024-01-19T21:20:58.781Z,20.77
2024-01-19T21:23:27.506Z,23.43
2024-01-19T21:25:55.530Z,21.53
2024-01-19T21:28:23.520Z,21.87
2024-01-19T21:30:51.419Z,20.80
2024-01-19T21:33:19.348Z,20.97
2024-01-19T21:35:47.602Z,21.20
2024-01-19T21:38:18.281Z,22.10
2024-01-19T21:40:46.983Z,23.40
2024-01-19T21:43:15.945Z,22.03
2024-01-19T21:45:44.270Z,24.07
2024-01-19T21:48:12.790Z,24.10
2024-01-19T21:50:41.243Z,24.97
2024-01-19T21:53:09.762Z,22.13
2024-01-19T21:55:39.251Z,24.73
2024-01-19T21:58:07.313Z,25.60
2024-01-19T22:00:35.268Z,27.60
2024-01-19T22:03:03.524Z,29.13
2024-01-19T22:05:31.626Z,32.80
2024-01-19T22:07:59.799Z,34.83
2024-01-19T22:10:27.757Z,38.20
2024-01-19T22:12:57.037Z,43.17
2024-01-19T22:15:25.005Z,42.90
2024-01-19T22:17:52.940Z,38.37
2024-01-19T22:20:20.946Z,38.53
2024-01-19T22:22:48.875Z,38.83
2024-01-19T22:25:16.991Z,41.87
2024-01-19T22:27:45.371Z,40.83
2024-01-19T22:30:15.547Z,37.63
2024-01-19T22:32:44.011Z,32.20
2024-01-19T22:35:12.202Z,32.63
2024-01-19T22:37:40.224Z,27.77
2024-01-19T22:40:10.221Z,27.50
2024-01-19T22:42:38.516Z,29.03
2024-01-19T22:45:07.334Z,28.07
2024-01-19T22:47:36.649Z,26.10
2024-01-19T22:50:05.745Z,26.23
2024-01-19T22:52:33.989Z,26.70
2024-01-19T22:55:02.016Z,25.77
2024-01-19T22:57:30.204Z,26.50
2024-01-19T22:59:58.102Z,26.13
2024-01-19T23:02:26.955Z,25.30
2024-01-19T23:04:56.330Z,25.83
2024-01-19T23:07:24.727Z,25.93
2024-01-19T23:09:52.665Z,26.00
2024-01-19T23:12:20.531Z,25.83
2024-01-19T23:14:48.453Z,24.43
2024-01-19T23:17:15.542Z,23.67
2024-01-19T23:19:43.678Z,21.80
2024-01-19T23:22:13.032Z,22.93
2024-01-19T23:24:40.965Z,20.43
2024-01-19T23:27:09.183Z,19.87
2024-01-19T23:29:37.190Z,18.23
2024-01-19T23:32:08.229Z,18.60
2024-01-19T23:34:36.855Z,16.07
2024-01-19T23:37:05.230Z,16.13
2024-01-19T23:39:35.532Z,15.47
2024-01-19T23:42:03.759Z,14.87
2024-01-19T23:44:31.754Z,15.43
2024-01-19T23:46:59.717Z,16.10
2024-01-19T23:49:29.329Z,16.40
2024-01-19T23:51:59.557Z,16.33
2024-01-19T23:54:27.457Z,15.27
2024-01-19T23:56:56.694Z,13.87
2024-01-19T23:59:24.653Z,13.13
